Time;durP1;ratioP1;P1;durP2;ratioP2;P2;SDS_P1;SDS_P2;PMS_P1;PMS_P2;Temp;Humidity;BMP_temperature;BMP_pressure;BME280_temperature;BME280_humidity;BME280_pressure;Samples;Min_cycle;Max_cycle;Signal;HPM_P1;HPM_P2
2023/03/30 00:00:19;;;;;;;11.55;1.70;;;;;;;10.27;100.00;95650.31;1014664;29;20084;-66
2023/03/30 00:00:50;;;;;;;6.70;1.90;;;;;;;10.25;100.00;95644.50;1019111;29;20470;-67
2023/03/30 00:01:20;;;;;;;6.97;1.65;;;;;;;10.22;100.00;95647.63;1022360;29;20297;-65
2023/03/30 00:01:53;;;;;;;12.35;1.67;;;;;;;10.18;100.00;95641.34;1023186;28;20034;-67
2023/03/30 00:02:23;;;;;;;3.72;1.00;;;;;;;10.15;100.00;95638.19;1022411;29;20025;-67
2023/03/30 00:02:54;;;;;;;8.30;1.40;;;;;;;10.15;100.00;95637.41;1022001;29;20266;-68
2023/03/30 00:03:26;;;;;;;7.45;1.20;;;;;;;10.16;100.00;95639.00;1022370;29;20027;-65
2023/03/30 00:03:57;;;;;;;4.70;1.45;;;;;;;10.18;100.00;95630.88;1019057;29;20773;-66
2023/03/30 00:04:29;;;;;;;10.68;1.48;;;;;;;10.15;100.00;95638.19;1021560;28;20271;-64
2023/03/30 00:05:01;;;;;;;8.05;1.52;;;;;;;10.14;100.00;95634.00;1022040;29;20350;-67
2023/03/30 00:05:33;;;;;;;17.33;2.03;;;;;;;10.14;100.00;95630.59;1022368;29;20271;-68
2023/03/30 00:06:04;;;;;;;7.88;1.50;;;;;;;10.08;100.00;95621.16;1022288;29;20306;-65
2023/03/30 00:06:38;;;;;;;7.65;1.77;;;;;;;10.14;100.00;95626.16;1018333;29;20409;-66
2023/03/30 00:07:09;;;;;;;10.05;1.77;;;;;;;10.14;100.00;95626.16;1018205;29;20032;-67
2023/03/30 00:07:41;;;;;;;9.98;1.55;;;;;;;10.15;100.00;95625.09;1015211;29;20272;-65
2023/03/30 00:08:13;;;;;;;7.38;1.20;;;;;;;10.18;100.00;95625.63;1012007;29;20340;-67
2023/03/30 00:08:43;;;;;;;17.55;1.92;;;;;;;10.19;100.00;95622.72;1014140;29;20280;-64
2023/03/30 00:09:14;;;;;;;5.35;1.90;;;;;;;10.19;100.00;95632.44;1015216;29;20263;-65
2023/03/30 00:09:45;;;;;;;5.85;1.48;;;;;;;10.16;100.00;95628.53;1014553;29;20036;-67
2023/03/30 00:10:19;;;;;;;8.13;2.08;;;;;;;10.22;100.00;95616.97;1019070;28;20429;-65
2023/03/30 00:10:51;;;;;;;9.18;1.95;;;;;;;10.32;100.00;95624.06;1022319;29;20266;-65
2023/03/30 00:11:22;;;;;;;6.32;1.70;;;;;;;10.34;100.00;95624.59;1021921;28;20337;-65
2023/03/30 00:11:53;;;;;;;10.75;1.83;;;;;;;10.44;100.00;95624.59;1023052;28;20370;-68
2023/03/30 00:12:24;;;;;;;7.57;2.08;;;;;;;10.44;100.00;95616.72;1022391;29;20030;-67
2023/03/30 00:12:55;;;;;;;10.48;1.38;;;;;;;10.48;100.00;95622.22;1018298;29;20264;-68
2023/03/30 00:13:26;;;;;;;12.40;1.70;;;;;;;10.44;100.00;95613.31;1018188;29;20045;-66
2023/03/30 00:13:57;;;;;;;7.13;1.50;;;;;;;10.44;100.00;95619.34;1010631;29;20044;-68
2023/03/30 00:14:28;;;;;;;7.13;1.52;;;;;;;10.40;100.00;95628.81;1014095;29;20327;-63
2023/03/30 00:14:59;;;;;;;10.15;2.85;;;;;;;10.56;100.00;95617.25;1014217;29;20027;-65
2023/03/30 00:15:29;;;;;;;8.25;1.65;;;;;;;10.54;100.00;95623.78;1014602;29;20274;-67
2023/03/30 00:16:00;;;;;;;6.03;1.27;;;;;;;10.67;100.00;95617.22;1018350;29;20036;-65
2023/03/30 00:16:31;;;;;;;16.88;3.13;;;;;;;10.61;100.00;95617.22;1012006;29;20068;-67
2023/03/30 00:17:01;;;;;;;9.93;1.73;;;;;;;10.58;100.00;95619.59;1018336;29;20072;-66
2023/03/30 00:17:32;;;;;;;6.47;1.20;;;;;;;10.52;100.00;95618.81;1014489;29;20032;-65
2023/03/30 00:18:02;;;;;;;7.88;1.15;;;;;;;10.48;100.00;95620.38;1010720;29;20056;-67
2023/03/30 00:18:33;;;;;;;4.78;1.98;;;;;;;10.47;100.00;95624.06;1014412;29;20032;-66
2023/03/30 00:19:03;;;;;;;4.22;1.30;;;;;;;10.45;100.00;95614.88;1014743;29;20122;-66
2023/03/30 00:19:37;;;;;;;7.70;1.63;;;;;;;10.42;100.00;95618.81;1014218;29;20036;-65
2023/03/30 00:20:10;;;;;;;6.00;1.92;;;;;;;10.40;100.00;95613.06;1014873;29;20447;-68
2023/03/30 00:20:41;;;;;;;8.10;2.55;;;;;;;10.40;100.00;95620.94;1006410;29;20270;-68
2023/03/30 00:21:12;;;;;;;10.15;1.55;;;;;;;10.37;100.00;95618.84;1007324;29;20341;-66
2023/03/30 00:21:44;;;;;;;6.90;1.40;;;;;;;10.37;100.00;95618.84;1014235;29;20469;-68
2023/03/30 00:22:14;;;;;;;8.60;1.83;;;;;;;10.38;100.00;95612.53;1015862;28;20031;-65
2023/03/30 00:22:46;;;;;;;2.90;1.10;;;;;;;10.34;100.00;95607.03;1026196;28;20278;-66
2023/03/30 00:23:17;;;;;;;4.45;1.67;;;;;;;10.46;100.00;95617.25;1022330;28;20113;-68
2023/03/30 00:23:48;;;;;;;7.75;1.65;;;;;;;10.45;100.00;95618.28;1022138;29;20349;-66
2023/03/30 00:24:19;;;;;;;6.63;1.38;;;;;;;10.40;100.00;95622.78;1022528;29;20267;-66
2023/03/30 00:24:49;;;;;;;4.13;1.10;;;;;;;10.27;100.00;95603.88;1021862;28;20764;-66
2023/03/30 00:25:22;;;;;;;6.82;1.23;;;;;;;10.41;100.00;95616.47;1022352;29;20296;-65
2023/03/30 00:25:52;;;;;;;6.35;1.55;;;;;;;10.48;100.00;95623.00;1022389;29;20679;-65
2023/03/30 00:26:22;;;;;;;10.48;1.33;;;;;;;10.49;100.00;95621.94;1022280;29;20321;-67
2023/03/30 00:26:53;;;;;;;7.80;1.38;;;;;;;10.42;100.00;95621.44;1024738;28;20031;-68
2023/03/30 00:27:23;;;;;;;3.97;2.22;;;;;;;10.42;100.00;95621.44;1026295;28;20026;-65
2023/03/30 00:27:54;;;;;;;7.78;1.65;;;;;;;10.37;100.00;95619.63;1020565;29;20038;-65
2023/03/30 00:28:29;;;;;;;7.78;1.38;;;;;;;10.39;100.00;95614.09;1018280;29;20028;-66
2023/03/30 00:29:00;;;;;;;5.78;1.27;;;;;;;10.32;100.00;95622.22;1014143;29;20024;-64
2023/03/30 00:29:30;;;;;;;9.90;1.45;;;;;;;10.35;100.00;95620.91;1015021;29;20311;-64
2023/03/30 00:30:02;;;;;;;8.90;1.15;;;;;;;10.31;100.00;95614.63;1019070;29;20114;-65
2023/03/30 00:30:32;;;;;;;6.18;1.50;;;;;;;10.33;100.00;95615.16;1018254;29;20050;-66
2023/03/30 00:31:03;;;;;;;5.30;1.40;;;;;;;10.40;100.00;95607.81;1022370;29;20301;-67
2023/03/30 00:31:33;;;;;;;5.93;1.38;;;;;;;10.38;100.00;95615.94;1018206;29;20028;-67
2023/03/30 00:32:04;;;;;;;7.55;1.50;;;;;;;10.32;100.00;95614.34;1014335;29;20410;-65
2023/03/30 00:32:34;;;;;;;6.20;1.85;;;;;;;10.26;100.00;95614.63;1018300;29;20036;-68
2023/03/30 00:33:05;;;;;;;6.85;1.20;;;;;;;10.25;100.00;95615.66;1014401;29;20035;-66
2023/03/30 00:33:35;;;;;;;7.13;1.63;;;;;;;10.24;100.00;95619.34;1010372;29;20035;-65
2023/03/30 00:34:06;;;;;;;8.80;2.63;;;;;;;10.21;100.00;95609.38;1010336;29;20549;-66
2023/03/30 00:34:36;;;;;;;14.50;2.83;;;;;;;10.22;100.00;95605.69;1013947;29;20043;-68
2023/03/30 00:35:07;;;;;;;7.45;2.03;;;;;;;10.21;100.00;95614.63;1018260;29;20574;-65
2023/03/30 00:35:38;;;;;;;7.75;2.08;;;;;;;10.26;100.00;95617.25;1014410;29;20032;-66
2023/03/30 00:36:09;;;;;;;11.38;2.33;;;;;;;10.31;100.00;95617.25;1014027;29;20036;-65
2023/03/30 00:36:40;;;;;;;10.50;1.38;;;;;;;10.35;100.00;95605.97;1014542;29;20780;-64
2023/03/30 00:37:10;;;;;;;3.83;1.30;;;;;;;10.34;100.00;95604.41;1006976;29;20289;-64
2023/03/30 00:37:44;;;;;;;10.88;2.03;;;;;;;10.42;100.00;95612.78;1014354;29;20478;-66
2023/03/30 00:38:14;;;;;;;9.18;1.50;;;;;;;10.37;100.00;95609.13;1018293;29;20032;-66
2023/03/30 00:38:47;;;;;;;10.07;1.65;;;;;;;10.41;100.00;95604.13;1015278;29;20626;-67
2023/03/30 00:39:17;;;;;;;10.70;2.85;;;;;;;10.41;100.00;95613.84;1018352;29;20055;-67
2023/03/30 00:39:48;;;;;;;4.68;1.48;;;;;;;10.33;100.00;95600.22;1010351;29;20269;-66
2023/03/30 00:40:19;;;;;;;5.65;1.58;;;;;;;10.35;100.00;95608.59;1010771;29;20201;-65
2023/03/30 00:40:54;;;;;;;9.00;1.90;;;;;;;10.31;100.00;95602.31;1010871;29;20116;-65
2023/03/30 00:41:25;;;;;;;8.50;1.60;;;;;;;10.34;100.00;95604.41;1015013;29;20272;-67
2023/03/30 00:41:55;;;;;;;13.65;4.13;;;;;;;10.28;100.00;95594.19;1014348;29;20282;-67
2023/03/30 00:42:26;;;;;;;9.60;2.20;;;;;;;10.27;100.00;95603.88;1011745;29;20025;-65
2023/03/30 00:43:04;;;;;;;13.60;1.77;;;;;;;10.36;100.00;95612.00;1018289;29;20031;-66
2023/03/30 00:44:02;;;;;;;4.97;1.27;;;;;;;10.44;100.00;95608.84;1019562;29;20567;-65
2023/03/30 00:45:04;;;;;;;6.80;1.42;;;;;;;10.47;100.00;95602.31;1017651;29;20275;-68
2023/03/30 00:45:35;;;;;;;6.10;2.03;;;;;;;10.42;100.00;95603.06;1018314;29;20263;-68
2023/03/30 00:46:06;;;;;;;9.48;1.55;;;;;;;10.37;100.00;95608.34;1016153;29;20781;-66
2023/03/30 00:46:36;;;;;;;12.23;1.23;;;;;;;10.41;100.00;95608.59;1022136;29;20235;-65
2023/03/30 00:47:07;;;;;;;10.95;1.98;;;;;;;10.41;100.00;95603.34;1022248;29;20031;-66
2023/03/30 00:47:40;;;;;;;5.43;1.00;;;;;;;10.40;100.00;95605.19;1018387;29;20031;-66
2023/03/30 00:48:21;;;;;;;5.35;1.55;;;;;;;10.43;100.00;95609.09;1022228;29;20055;-65
2023/03/30 00:48:51;;;;;;;;;;;;;;;10.48;100.00;95604.66;1014844;29;20268;-66
2023/03/30 00:49:21;;;;;;;8.52;1.38;;;;;;;10.56;100.00;95606.75;1016002;29;19911;-68
2023/03/30 00:49:52;;;;;;;6.75;2.20;;;;;;;10.56;100.00;95603.31;1018323;29;20523;-65
2023/03/30 00:50:33;;;;;;;12.48;3.63;;;;;;;10.51;100.00;95606.75;1017750;29;20027;-62
2023/03/30 00:51:08;;;;;;;7.22;1.52;;;;;;;10.47;100.00;95602.31;1023195;28;20054;-64
2023/03/30 00:51:39;;;;;;;7.95;1.35;;;;;;;10.44;100.00;95598.38;1022281;29;20544;-65
2023/03/30 00:52:10;;;;;;;7.90;1.27;;;;;;;10.49;100.00;95611.47;1014356;29;20354;-65
2023/03/30 00:52:40;;;;;;;5.18;2.05;;;;;;;10.46;100.00;95601.53;1014185;29;20761;-65
2023/03/30 00:53:18;;;;;;;12.60;2.00;;;;;;;10.40;100.00;95599.94;1014950;29;20032;-63
2023/03/30 00:53:50;;;;;;;8.32;2.45;;;;;;;10.42;100.00;95608.31;1020448;28;20031;-64
2023/03/30 00:54:20;;;;;;;7.78;0.90;;;;;;;10.43;100.00;95609.91;1022170;28;20857;-65
2023/03/30 00:54:51;;;;;;;5.25;1.30;;;;;;;10.40;100.00;95607.03;1014223;29;20287;-67
2023/03/30 00:55:22;;;;;;;6.97;1.17;;;;;;;10.38;100.00;95615.94;1007311;29;20520;-68
2023/03/30 00:55:53;;;;;;;4.82;1.00;;;;;;;10.35;100.00;95599.94;1011477;29;20253;-67
2023/03/30 00:56:25;;;;;;;5.32;1.40;;;;;;;10.39;100.00;95608.84;1018870;29;20280;-68
2023/03/30 00:56:56;;;;;;;5.90;1.98;;;;;;;10.34;100.00;95609.66;1015179;29;20043;-66
2023/03/30 00:57:26;;;;;;;19.33;1.63;;;;;;;10.34;100.00;95604.41;1011285;29;20268;-65
2023/03/30 00:57:57;;;;;;;11.38;1.95;;;;;;;10.32;100.00;95610.97;1011265;29;20040;-66
2023/03/30 00:58:27;;;;;;;7.15;1.50;;;;;;;10.35;100.00;95602.56;1015165;29;20071;-66
2023/03/30 00:58:59;;;;;;;11.05;2.38;;;;;;;10.37;100.00;95608.34;1015196;29;20032;-67
2023/03/30 00:59:29;;;;;;;6.70;1.48;;;;;;;10.39;100.00;95608.84;1014868;29;20024;-66
2023/03/30 01:00:00;;;;;;;8.55;1.52;;;;;;;10.36;100.00;95604.13;1015538;29;20833;-67
2023/03/30 01:00:32;;;;;;;7.90;1.42;;;;;;;10.35;100.00;95610.44;1011206;29;20469;-65
2023/03/30 01:01:04;;;;;;;7.50;1.30;;;;;;;10.36;100.00;95601.50;1011543;29;20483;-65
2023/03/30 01:01:37;;;;;;;10.15;2.30;;;;;;;10.36;100.00;95606.75;1014906;29;20268;-65
2023/03/30 01:02:07;;;;;;;9.20;1.50;;;;;;;10.33;100.00;95605.47;1015892;29;20327;-67
2023/03/30 01:02:41;;;;;;;8.07;2.13;;;;;;;10.31;100.00;95604.94;1015173;29;20303;-67
2023/03/30 01:03:29;;;;;;;4.15;1.63;;;;;;;10.35;100.00;95602.56;1015584;29;20063;-67
2023/03/30 01:04:01;;;;;;;10.98;2.22;;;;;;;10.30;100.00;95581.59;1019114;29;20634;-65
2023/03/30 01:04:31;;;;;;;10.75;1.63;;;;;;;10.40;100.00;95602.56;1022338;28;20715;-66
2023/03/30 01:05:01;;;;;;;4.72;1.17;;;;;;;10.35;100.00;95599.94;1022737;29;20275;-67
2023/03/30 01:05:32;;;;;;;10.45;1.85;;;;;;;10.37;100.00;95603.09;1019125;29;20035;-69
2023/03/30 01:06:05;;;;;;;7.20;2.03;;;;;;;10.40;100.00;95602.56;1019040;29;20031;-67
2023/03/30 01:06:35;;;;;;;6.57;1.25;;;;;;;10.46;100.00;95601.53;1018949;29;20039;-67
2023/03/30 01:07:06;;;;;;;7.90;1.70;;;;;;;10.43;100.00;95607.28;1019368;29;20294;-66
2023/03/30 01:07:37;;;;;;;9.57;1.40;;;;;;;10.42;100.00;95604.91;1015044;29;20035;-67
2023/03/30 01:08:08;;;;;;;4.22;1.58;;;;;;;10.45;100.00;95609.63;1015141;29;20035;-65
2023/03/30 01:08:41;;;;;;;5.18;1.55;;;;;;;10.43;100.00;95602.03;1015003;29;20568;-65
2023/03/30 01:09:12;;;;;;;5.43;2.05;;;;;;;10.35;100.00;95603.34;1019431;29;20392;-68
2023/03/30 01:09:43;;;;;;;8.45;1.80;;;;;;;10.34;100.00;95604.41;1022945;29;20322;-66
2023/03/30 01:10:13;;;;;;;9.90;3.42;;;;;;;10.33;100.00;95610.72;1015037;29;20268;-66
2023/03/30 01:10:43;;;;;;;8.95;2.13;;;;;;;10.26;100.00;95597.06;1015182;29;20032;-66
2023/03/30 01:11:14;;;;;;;7.75;1.60;;;;;;;10.28;100.00;95615.94;1007307;29;20029;-66
2023/03/30 01:11:45;;;;;;;5.50;1.10;;;;;;;10.32;100.00;95605.72;1015051;29;20032;-65
2023/03/30 01:12:15;;;;;;;12.20;1.98;;;;;;;10.33;100.00;95609.94;1015231;29;20490;-67
2023/03/30 01:12:46;;;;;;;9.55;1.60;;;;;;;10.33;100.00;95602.84;1015222;29;20024;-65
2023/03/30 01:13:16;;;;;;;20.67;2.05;;;;;;;10.33;100.00;95604.69;1018905;29;20074;-68
2023/03/30 01:13:48;;;;;;;8.23;1.60;;;;;;;10.30;100.00;95605.97;1018947;29;20027;-65
2023/03/30 01:14:19;;;;;;;9.40;1.55;;;;;;;10.29;100.00;95609.63;1018833;29;20020;-66
2023/03/30 01:14:49;;;;;;;5.72;1.52;;;;;;;10.21;100.00;95594.41;1020304;28;20260;-65
2023/03/30 01:15:20;;;;;;;6.22;1.55;;;;;;;10.21;100.00;95604.13;1026797;28;20512;-66
2023/03/30 01:16:12;;;;;;;10.73;2.10;;;;;;;10.09;100.00;95589.47;1022917;29;20462;-69
2023/03/30 01:17:00;;;;;;;7.85;2.03;;;;;;;10.25;100.00;95613.03;1022916;29;20066;-65
2023/03/30 01:17:35;;;;;;;5.22;1.58;;;;;;;10.27;100.00;95605.72;1020331;29;20267;-67
2023/03/30 01:18:27;;;;;;;12.02;2.38;;;;;;;10.30;100.00;95615.69;1018751;29;20836;-67
2023/03/30 01:19:17;;;;;;;10.10;1.88;;;;;;;10.26;100.00;95612.00;1019333;29;20256;-65
2023/03/30 01:20:11;;;;;;;10.63;1.70;;;;;;;10.27;100.00;95613.59;1024378;28;20281;-66
2023/03/30 01:21:01;;;;;;;9.35;1.58;;;;;;;10.26;100.00;95612.00;1018996;29;20036;-65
2023/03/30 01:22:03;;;;;;;4.22;1.95;;;;;;;10.40;100.00;95613.06;1019387;29;20259;-69
2023/03/30 01:22:55;;;;;;;2.40;1.27;;;;;;;10.38;100.00;95612.53;1009561;29;20339;-66
2023/03/30 01:23:45;;;;;;;7.20;1.52;;;;;;;10.42;100.00;95610.16;1011172;29;21335;-65
2023/03/30 01:24:34;;;;;;;9.57;2.40;;;;;;;10.44;100.00;95608.06;1007541;29;20257;-67
2023/03/30 01:25:56;;;;;;;9.73;2.03;;;;;;;10.47;100.00;95602.31;1017811;29;20032;-70
2023/03/30 01:26:43;;;;;;;8.77;1.60;;;;;;;10.64;100.00;95596.75;1014714;29;20723;-67
2023/03/30 01:27:47;;;;;;;8.77;1.25;;;;;;;10.61;100.00;95588.34;1008802;29;20762;-65
2023/03/30 01:28:43;;;;;;;8.32;1.52;;;;;;;10.59;100.00;95593.06;1017423;29;20383;-66
2023/03/30 01:29:26;;;;;;;10.45;1.58;;;;;;;10.58;100.00;95582.84;1003216;29;20278;-65
2023/03/30 01:30:21;;;;;;;8.88;1.88;;;;;;;10.70;100.00;95595.69;1009471;29;20266;-67
2023/03/30 01:30:54;;;;;;;13.93;2.25;;;;;;;10.78;100.00;95582.03;1022721;29;20270;-67
2023/03/30 01:31:44;;;;;;;8.57;1.27;;;;;;;10.74;100.00;95586.25;1022967;29;20262;-65
2023/03/30 01:32:27;;;;;;;5.55;1.75;;;;;;;10.75;100.00;95590.44;1026670;28;20517;-65
2023/03/30 01:33:15;;;;;;;14.38;1.90;;;;;;;10.76;100.00;95589.38;1015111;29;20024;-65
2023/03/30 01:34:13;;;;;;;7.38;1.33;;;;;;;10.83;100.00;95587.25;1015160;29;20850;-67
2023/03/30 01:35:20;;;;;;;9.25;2.08;;;;;;;10.85;100.00;95585.94;1018784;29;20283;-66
2023/03/30 01:36:07;;;;;;;10.50;1.67;;;;;;;10.84;100.00;95586.22;1026465;28;20281;-64
2023/03/30 01:37:05;;;;;;;6.40;1.58;;;;;;;10.86;100.00;95589.34;1018709;29;20756;-65
2023/03/30 01:37:59;;;;;;;8.52;1.58;;;;;;;10.85;100.00;95587.78;1018674;29;20276;-65
2023/03/30 01:38:50;;;;;;;5.93;1.17;;;;;;;10.80;100.00;95590.44;1024158;28;20287;-66
2023/03/30 01:39:58;;;;;;;6.53;1.42;;;;;;;10.76;100.00;95592.78;1026881;28;20239;-69
2023/03/30 01:40:52;;;;;;;5.68;1.83;;;;;;;10.79;100.00;95597.50;1027029;28;20273;-67
2023/03/30 01:41:53;;;;;;;7.55;1.58;;;;;;;10.80;100.00;95595.69;1027146;28;20805;-65
2023/03/30 01:42:57;;;;;;;17.23;1.98;;;;;;;10.85;100.00;95598.28;1018909;29;20267;-67
2023/03/30 01:43:38;;;;;;;6.38;1.77;;;;;;;10.94;100.00;95595.88;1003261;29;20306;-66
2023/03/30 01:44:23;;;;;;;;;;;;;;;10.92;100.00;95598.78;1006402;29;20277;-65
2023/03/30 01:45:05;;;;;;;5.00;1.48;;;;;;;10.92;100.00;95598.00;1014438;29;19915;-68
2023/03/30 01:45:44;;;;;;;5.40;1.35;;;;;;;11.07;100.00;95601.34;1014901;29;20339;-66
2023/03/30 01:46:29;;;;;;;7.93;2.30;;;;;;;11.08;100.00;95594.25;1022872;29;20271;-65
2023/03/30 01:47:37;;;;;;;8.93;1.83;;;;;;;11.16;100.00;95600.78;1018723;29;20367;-68
2023/03/30 01:48:28;;;;;;;8.73;2.03;;;;;;;11.43;100.00;95593.28;1022681;29;20313;-65
2023/03/30 01:49:00;;;;;;;;;;;;;;;11.42;100.00;95596.97;1024341;28;20862;-62
2023/03/30 01:49:39;;;;;;;9.40;1.38;;;;;;;11.41;100.00;95595.41;1024787;28;19918;-65
2023/03/30 01:50:11;;;;;;;11.70;1.85;;;;;;;11.41;100.00;95595.41;1022898;29;20709;-68
2023/03/30 01:50:51;;;;;;;9.52;2.60;;;;;;;11.40;100.00;95596.50;1017194;29;20777;-67
2023/03/30 01:51:25;;;;;;;10.95;1.38;;;;;;;11.42;100.00;95591.72;1014847;29;20260;-67
2023/03/30 01:52:04;;;;;;;12.00;2.72;;;;;;;11.44;100.00;95573.88;1019140;29;20020;-68
2023/03/30 01:52:55;;;;;;;7.88;1.30;;;;;;;11.80;100.00;95586.75;1017864;29;20362;-66
2023/03/30 01:53:47;;;;;;;7.97;2.33;;;;;;;11.85;100.00;95588.63;1014811;29;20302;-66
2023/03/30 01:54:21;;;;;;;10.68;2.40;;;;;;;11.88;100.00;95591.47;1018847;29;20299;-68
2023/03/30 01:55:00;;;;;;;10.30;2.03;;;;;;;11.79;100.00;95579.94;1015367;29;20264;-66
2023/03/30 01:55:45;;;;;;;6.70;1.50;;;;;;;11.79;100.00;95595.72;1014771;29;20272;-65
2023/03/30 01:56:17;;;;;;;9.35;1.50;;;;;;;11.93;100.00;95591.44;1014738;29;20866;-68
2023/03/30 01:56:57;;;;;;;14.30;2.92;;;;;;;12.14;100.00;95591.28;1010954;29;20039;-67
2023/03/30 01:57:37;;;;;;;14.23;2.53;;;;;;;12.10;100.00;95585.00;1014579;29;20475;-66
2023/03/30 01:58:09;;;;;;;11.13;1.80;;;;;;;12.11;100.00;95597.13;1013648;29;20069;-66
2023/03/30 01:58:43;;;;;;;7.70;1.60;;;;;;;12.08;100.00;95592.41;1021814;29;20019;-67
2023/03/30 01:59:21;;;;;;;5.10;1.35;;;;;;;12.06;100.00;95590.03;1018868;29;20090;-67
2023/03/30 01:59:56;;;;;;;8.85;1.73;;;;;;;12.08;100.00;95592.41;1018919;29;20478;-66
2023/03/30 02:00:27;;;;;;;14.60;1.50;;;;;;;12.10;100.00;95595.53;1017069;29;20107;-66
2023/03/30 02:00:59;;;;;;;7.65;2.35;;;;;;;12.18;100.00;95593.09;1012758;29;20123;-65
2023/03/30 02:01:32;;;;;;;7.68;1.10;;;;;;;12.25;100.00;95592.78;1014736;29;20024;-66
2023/03/30 02:02:02;;;;;;;8.48;2.17;;;;;;;12.43;100.00;95591.28;1022765;28;20093;-66
2023/03/30 02:02:33;;;;;;;9.00;1.92;;;;;;;12.37;100.00;95590.53;1011238;29;20084;-67
2023/03/30 02:03:15;;;;;;;6.50;1.63;;;;;;;12.32;100.00;95593.25;1014708;29;20156;-67
2023/03/30 02:03:48;;;;;;;10.10;1.63;;;;;;;12.27;100.00;95590.63;1014737;29;20403;-67
2023/03/30 02:04:20;;;;;;;5.90;2.03;;;;;;;12.16;100.00;95574.16;1014998;29;20020;-65
2023/03/30 02:04:52;;;;;;;8.13;2.38;;;;;;;12.23;100.00;95584.38;1017882;29;20490;-65
2023/03/30 02:05:23;;;;;;;10.85;1.75;;;;;;;12.21;100.00;95582.03;1015102;29;20027;-66
2023/03/30 02:05:56;;;;;;;8.30;1.60;;;;;;;12.19;100.00;95588.63;1014438;29;20028;-66
2023/03/30 02:06:28;;;;;;;11.80;2.42;;;;;;;12.14;100.00;95586.00;1014109;29;20106;-67
2023/03/30 02:07:00;;;;;;;9.52;1.63;;;;;;;12.02;100.00;95596.91;1011050;29;20803;-65
2023/03/30 02:07:31;;;;;;;11.55;1.77;;;;;;;11.97;100.00;95596.94;1014846;29;20024;-66
2023/03/30 02:08:17;;;;;;;11.77;2.15;;;;;;;11.87;100.00;95594.38;1018745;29;20255;-67
2023/03/30 02:08:48;;;;;;;10.68;2.03;;;;;;;11.81;100.00;95604.13;1018667;29;20024;-66
2023/03/30 02:09:19;;;;;;;5.05;1.65;;;;;;;11.73;100.00;95607.31;1022893;29;20030;-67
2023/03/30 02:09:51;;;;;;;11.48;2.00;;;;;;;11.80;100.00;95613.06;1014636;29;20256;-66
2023/03/30 02:10:23;;;;;;;6.28;2.15;;;;;;;11.81;100.00;95609.38;1014792;29;20576;-67
2023/03/30 02:10:54;;;;;;;17.02;2.70;;;;;;;11.80;100.00;95615.69;1010472;29;20025;-68
2023/03/30 02:11:25;;;;;;;5.95;1.65;;;;;;;11.75;100.00;95618.34;1007940;29;20025;-65
2023/03/30 02:11:55;;;;;;;11.65;2.67;;;;;;;11.68;100.00;95620.50;1011975;29;20164;-66
2023/03/30 02:12:28;;;;;;;7.53;2.38;;;;;;;11.83;100.00;95622.25;1015182;29;20264;-66
2023/03/30 02:13:00;;;;;;;9.10;1.67;;;;;;;11.67;100.00;95611.03;1014725;29;20024;-67
2023/03/30 02:13:30;;;;;;;10.05;1.67;;;;;;;11.62;100.00;95619.75;1014903;29;20163;-66
2023/03/30 02:14:01;;;;;;;13.60;2.08;;;;;;;11.54;100.00;95621.09;1014479;29;20091;-67
2023/03/30 02:14:32;;;;;;;10.90;2.03;;;;;;;11.53;100.00;95622.13;1018264;29;20433;-67
2023/03/30 02:15:06;;;;;;;6.53;1.50;;;;;;;11.49;100.00;95618.50;1018176;29;20032;-68
2023/03/30 02:15:39;;;;;;;9.32;2.92;;;;;;;11.41;100.00;95615.66;1010856;29;20834;-66
2023/03/30 02:16:15;;;;;;;11.60;2.05;;;;;;;11.31;100.00;95617.28;1014922;29;20267;-66
2023/03/30 02:16:47;;;;;;;10.50;1.98;;;;;;;11.21;100.00;95616.53;1014706;29;20698;-66
2023/03/30 02:17:21;;;;;;;13.90;2.22;;;;;;;11.22;100.00;95618.88;1014977;29;20596;-66
2023/03/30 02:17:52;;;;;;;12.98;2.22;;;;;;;11.29;100.00;95610.72;1019029;29;20345;-69
2023/03/30 02:18:22;;;;;;;8.50;1.92;;;;;;;11.20;100.00;95605.25;1014702;29;20673;-65
2023/03/30 02:18:53;;;;;;;14.45;1.48;;;;;;;11.16;100.00;95611.28;1015042;29;20075;-66
2023/03/30 02:19:24;;;;;;;6.68;1.88;;;;;;;11.20;100.00;95617.56;1011204;29;20031;-67
2023/03/30 02:19:56;;;;;;;5.32;1.75;;;;;;;11.12;100.00;95615.50;1014708;29;20769;-66
2023/03/30 02:20:28;;;;;;;9.25;1.80;;;;;;;11.02;100.00;95614.47;1010958;29;20028;-66
2023/03/30 02:21:00;;;;;;;14.18;1.80;;;;;;;10.97;100.00;95614.50;1011025;29;20261;-67
2023/03/30 02:21:31;;;;;;;8.35;1.48;;;;;;;10.89;100.00;95615.06;1011761;29;20264;-65
2023/03/30 02:22:02;;;;;;;11.05;2.40;;;;;;;10.88;100.00;95610.88;1019434;29;20774;-68
2023/03/30 02:22:33;;;;;;;10.98;2.50;;;;;;;10.87;100.00;95617.16;1019865;29;20027;-66
2023/03/30 02:23:04;;;;;;;4.93;1.55;;;;;;;10.78;100.00;95606.41;1022578;29;20266;-61
2023/03/30 02:23:37;;;;;;;11.23;2.67;;;;;;;10.75;100.00;95614.03;1019370;29;20027;-66
2023/03/30 02:24:16;;;;;;;9.77;1.75;;;;;;;10.70;100.00;95606.19;1011928;29;20284;-66
2023/03/30 02:24:48;;;;;;;6.18;2.10;;;;;;;10.67;100.00;95618.00;1010651;29;20273;-68
2023/03/30 02:25:18;;;;;;;8.35;1.55;;;;;;;10.65;100.00;95609.59;1015163;29;20294;-66
2023/03/30 02:25:48;;;;;;;12.30;2.05;;;;;;;10.65;100.00;95617.47;1017029;29;20275;-64
2023/03/30 02:26:19;;;;;;;15.85;2.13;;;;;;;10.64;100.00;95617.75;1017070;29;20550;-66
2023/03/30 02:26:50;;;;;;;17.15;2.40;;;;;;;10.49;100.00;95602.81;1019328;29;20386;-66
2023/03/30 02:27:21;;;;;;;14.57;2.35;;;;;;;10.58;100.00;95609.09;1019583;29;20052;-67
2023/03/30 02:27:52;;;;;;;8.35;1.67;;;;;;;10.58;100.00;95614.34;1023479;29;20019;-64
2023/03/30 02:28:22;;;;;;;9.45;1.98;;;;;;;10.54;100.00;95611.47;1023548;29;20259;-66
2023/03/30 02:28:53;;;;;;;10.68;1.77;;;;;;;10.55;100.00;95615.66;1023527;28;20031;-66
2023/03/30 02:29:23;;;;;;;12.05;2.03;;;;;;;10.54;100.00;95624.56;1027544;28;20027;-66
2023/03/30 02:29:55;;;;;;;11.30;2.78;;;;;;;10.51;100.00;95619.06;1023466;29;20420;-65
2023/03/30 02:30:32;;;;;;;10.13;2.63;;;;;;;10.51;100.00;95622.47;1023431;29;20090;-65
2023/03/30 02:31:03;;;;;;;6.65;1.80;;;;;;;10.54;100.00;95629.81;1019447;29;20654;-68
2023/03/30 02:31:33;;;;;;;10.98;3.17;;;;;;;10.59;100.00;95626.41;1020793;29;20275;-66
2023/03/30 02:32:04;;;;;;;9.73;2.53;;;;;;;10.61;100.00;95625.09;1019526;29;20477;-65
2023/03/30 02:32:46;;;;;;;11.55;1.98;;;;;;;10.55;100.00;95622.75;1015686;29;20039;-65
2023/03/30 02:33:34;;;;;;;8.18;2.08;;;;;;;10.58;100.00;95630.88;1007789;29;20089;-66
2023/03/30 02:34:27;;;;;;;10.43;1.80;;;;;;;10.61;100.00;95626.94;1007567;29;20269;-67
2023/03/30 02:35:21;;;;;;;11.45;2.28;;;;;;;10.61;100.00;95624.31;1012641;29;20272;-64
2023/03/30 02:36:13;;;;;;;10.93;2.25;;;;;;;10.56;100.00;95616.44;1020362;29;20256;-68
2023/03/30 02:36:59;;;;;;;14.00;3.88;;;;;;;10.55;100.00;95636.63;1023520;29;20259;-68
2023/03/30 02:37:58;;;;;;;8.25;1.80;;;;;;;10.51;100.00;95632.97;1023310;29;20258;-65
2023/03/30 02:38:54;;;;;;;14.20;2.85;;;;;;;10.47;100.00;95631.16;1020659;29;20742;-68
2023/03/30 02:39:28;;;;;;;11.35;1.80;;;;;;;10.48;100.00;95633.50;1010542;29;20296;-66
2023/03/30 02:40:11;;;;;;;12.55;2.95;;;;;;;10.66;100.00;95624.28;1003764;29;20366;-65
2023/03/30 02:41:14;;;;;;;10.32;1.95;;;;;;;10.61;100.00;95627.72;1016040;29;20913;-66
2023/03/30 02:42:12;;;;;;;8.93;2.10;;;;;;;10.54;100.00;95619.34;1023379;28;20259;-67
2023/03/30 02:43:02;;;;;;;7.55;1.90;;;;;;;10.54;100.00;95621.97;1015371;29;20363;-67
2023/03/30 02:43:35;;;;;;;11.18;2.60;;;;;;;10.52;100.00;95618.03;1015536;29;20783;-66
2023/03/30 02:44:11;;;;;;;8.68;1.90;;;;;;;10.50;100.00;95622.75;1012110;29;20778;-67
2023/03/30 02:44:44;;;;;;;8.18;1.88;;;;;;;10.50;100.00;95615.69;1018389;29;20338;-67
2023/03/30 02:45:33;;;;;;;8.70;1.70;;;;;;;10.51;100.00;95613.84;1019357;29;20287;-67
2023/03/30 02:46:03;;;;;;;10.13;1.85;;;;;;;10.49;100.00;95621.16;1025557;28;20247;-67
2023/03/30 02:46:42;;;;;;;10.50;1.70;;;;;;;10.47;100.00;95610.16;1027589;28;20258;-66
2023/03/30 02:47:37;;;;;;;6.25;1.95;;;;;;;10.44;100.00;95611.47;1027576;28;20034;-66
2023/03/30 02:48:32;;;;;;;11.90;2.22;;;;;;;10.37;100.00;95601.25;1023514;29;20258;-66